Time;durP1;ratioP1;P1;durP2;ratioP2;P2;SDS_P1;SDS_P2;PMS_P1;PMS_P2;Temp;Humidity;BMP_temperature;BMP_pressure;BME280_temperature;BME280_humidity;BME280_pressure;Samples;Min_cycle;Max_cycle;Signal;HPM_P1;HPM_P2
2023/01/09 00:00:47;;;;;;;;;;;;;;;;;;4998657;28;20004;-67
2023/01/09 00:03:13;;;;;;;;;;;;;;;;;;5000694;28;19929;-68
2023/01/09 00:05:38;;;;;;;;;;;;;;;;;;4996755;28;20052;-67
2023/01/09 00:08:03;;;;;;;;;;;;;;;;;;4982265;28;19983;-68
2023/01/09 00:10:31;;;;;;;;;;;;;;;;;;4998278;28;19995;-67
2023/01/09 00:12:57;;;;;;;;;;;;;;;;;;4997994;28;19928;-70
2023/01/09 00:15:23;;;;;;;;;;;;;;;;;;4996315;28;19921;-69
2023/01/09 00:17:52;;;;;;;;;;;;;;;;;;4999144;28;19921;-68
2023/01/09 00:20:19;;;;;;;;;;;;;;;;;;4996206;28;19923;-67
2023/01/09 00:22:48;;;;;;;;;;;;;;;;;;4997686;28;20270;-69
2023/01/09 00:25:13;;;;;;;;;;;;;;;;;;4980675;28;19917;-67
2023/01/09 00:27:38;;;;;;;;;;;;;;;;;;4995248;28;19921;-67
2023/01/09 00:30:03;;;;;;;;;;;;;;;;;;4997021;28;20361;-67
2023/01/09 00:32:29;;;;;;;;;;;;;;;;;;4997386;28;20412;-66
2023/01/09 00:34:55;;;;;;;;;;;;;;;;;;4994614;28;19913;-66
2023/01/09 00:37:23;;;;;;;;;;;;;;;;;;4995810;28;19921;-67
2023/01/09 00:39:48;;;;;;;;;;;;;;;;;;4997787;28;20344;-67
2023/01/09 00:42:16;;;;;;;;;;;;;;;;;;4979942;28;19929;-67
2023/01/09 00:44:42;;;;;;;;;;;;;;;;;;4998096;28;19921;-67
2023/01/09 00:47:09;;;;;;;;;;;;;;;;;;4993820;28;19959;-67
2023/01/09 00:49:37;;;;;;;;;;;;;;;;;;4999436;28;19971;-67
2023/01/09 00:52:02;;;;;;;;;;;;;;;;;;4994623;28;19925;-67
2023/01/09 00:54:29;;;;;;;;;;;;;;;;;;4998605;28;19963;-68
2023/01/09 00:56:57;;;;;;;;;;;;;;;;;;4995806;28;21577;-67
2023/01/09 00:59:22;;;;;;;;;;;;;;;;;;4999274;28;19921;-68
2023/01/09 01:01:48;;;;;;;;;;;;;;;;;;4995771;28;19931;-68
2023/01/09 01:09:44;;;;;;;;;;;;;;;;;;4997595;28;19917;-69
2023/01/09 01:12:12;;;;;;;;;;;;;;;;;;4995643;28;20027;-69
2023/01/09 01:14:38;;;;;;;;;;;;;;;;;;4998971;28;19921;-69
2023/01/09 01:17:03;;;;;;;;;;;;;;;;;;4996325;28;19991;-69
2023/01/09 01:19:28;;;;;;;;;;;;;;;;;;4996040;28;20089;-69
2023/01/09 01:21:54;;;;;;;;;;;;;;;;;;4996123;28;19917;-70
2023/01/09 01:24:19;;;;;;;;;;;;;;;;;;4996771;28;19921;-70
2023/01/09 01:26:44;;;;;;;;;;;;;;;;;;4997915;28;20255;-68
2023/01/09 01:29:12;;;;;;;;;;;;;;;;;;5001547;28;19917;-67
2023/01/09 01:31:38;;;;;;;;;;;;;;;;;;4985279;28;20156;-69
2023/01/09 01:34:08;;;;;;;;;;;;;;;;;;5001329;28;19975;-69
2023/01/09 01:36:33;;;;;;;;;;;;;;;;;;4999834;28;19918;-69
2023/01/09 01:38:59;;;;;;;;;;;;;;;;;;5003778;28;19928;-68
2023/01/09 01:41:29;;;;;;;;;;;;;;;;;;5000230;28;19928;-69
2023/01/09 01:44:00;;;;;;;;;;;;;;;;;;5000843;28;20285;-68
2023/01/09 01:46:28;;;;;;;;;;;;;;;;;;5000343;28;19960;-69
2023/01/09 01:48:53;;;;;;;;;;;;;;;;;;4996040;28;20027;-69
2023/01/09 01:51:22;;;;;;;;;;;;;;;;;;5000453;28;20562;-69
2023/01/09 01:53:48;;;;;;;;;;;;;;;;;;4998527;28;19921;-67
2023/01/09 01:56:16;;;;;;;;;;;;;;;;;;4997458;28;21474;-69
2023/01/09 01:58:41;;;;;;;;;;;;;;;;;;4995943;28;19921;-69
2023/01/09 02:01:06;;;;;;;;;;;;;;;;;;4995873;28;19917;-69
2023/01/09 02:03:32;;;;;;;;;;;;;;;;;;4998024;28;20543;-69
2023/01/09 02:05:59;;;;;;;;;;;;;;;;;;5001553;28;20494;-69
2023/01/09 02:08:25;;;;;;;;;;;;;;;;;;4984680;28;20288;-68
2023/01/09 02:10:52;;;;;;;;;;;;;;;;;;5012662;28;19971;-67
2023/01/09 02:13:20;;;;;;;;;;;;;;;;;;5001901;28;20902;-67
2023/01/09 02:15:48;;;;;;;;;;;;;;;;;;5000664;28;20111;-67
2023/01/09 02:18:13;;;;;;;;;;;;;;;;;;4980966;28;19916;-68
2023/01/09 02:20:39;;;;;;;;;;;;;;;;;;4998389;28;19974;-68
2023/01/09 02:23:07;;;;;;;;;;;;;;;;;;4998655;28;19988;-68
2023/01/09 02:25:32;;;;;;;;;;;;;;;;;;4984365;28;19925;-66
2023/01/09 02:27:58;;;;;;;;;;;;;;;;;;5000613;28;19921;-68
2023/01/09 02:30:23;;;;;;;;;;;;;;;;;;5000868;28;20036;-68
2023/01/09 02:32:49;;;;;;;;;;;;;;;;;;4982452;28;20328;-69
2023/01/09 02:35:14;;;;;;;;;;;;;;;;;;4984733;28;20418;-68
2023/01/09 02:37:42;;;;;;;;;;;;;;;;;;4999551;28;19921;-68
2023/01/09 02:40:09;;;;;;;;;;;;;;;;;;5000068;28;20320;-68
2023/01/09 02:42:35;;;;;;;;;;;;;;;;;;4996664;28;19921;-68
2023/01/09 02:45:04;;;;;;;;;;;;;;;;;;4997447;28;20532;-68
2023/01/09 02:47:29;;;;;;;;;;;;;;;;;;4998035;28;19929;-68
2023/01/09 02:49:54;;;;;;;;;;;;;;;;;;4996578;28;19926;-68
2023/01/09 02:52:22;;;;;;;;;;;;;;;;;;4982731;28;19975;-68
2023/01/09 02:54:50;;;;;;;;;;;;;;;;;;4999717;28;20353;-69
2023/01/09 02:57:18;;;;;;;;;;;;;;;;;;4998742;28;19928;-68
2023/01/09 02:59:46;;;;;;;;;;;;;;;;;;5000141;28;19921;-68
2023/01/09 03:02:11;;;;;;;;;;;;;;;;;;5000308;28;20466;-67
2023/01/09 03:04:39;;;;;;;;;;;;;;;;;;4980502;28;19924;-68
2023/01/09 03:07:07;;;;;;;;;;;;;;;;;;4996862;28;20447;-68
2023/01/09 03:09:33;;;;;;;;;;;;;;;;;;4996263;28;19920;-68
2023/01/09 03:12:00;;;;;;;;;;;;;;;;;;4980683;28;19988;-68
2023/01/09 03:14:28;;;;;;;;;;;;;;;;;;4998714;28;20372;-68
2023/01/09 03:16:56;;;;;;;;;;;;;;;;;;4997831;28;20365;-67
2023/01/09 03:19:24;;;;;;;;;;;;;;;;;;4999060;28;20417;-67
2023/01/09 03:21:50;;;;;;;;;;;;;;;;;;4999717;28;19993;-68
2023/01/09 03:24:15;;;;;;;;;;;;;;;;;;4997349;28;20024;-68
2023/01/09 03:26:41;;;;;;;;;;;;;;;;;;4998970;28;19925;-68
2023/01/09 03:29:07;;;;;;;;;;;;;;;;;;4998508;28;19917;-68
2023/01/09 03:31:32;;;;;;;;;;;;;;;;;;4996545;28;20373;-67
2023/01/09 03:33:58;;;;;;;;;;;;;;;;;;4998528;28;19917;-67
2023/01/09 03:36:25;;;;;;;;;;;;;;;;;;4998940;28;19921;-67
2023/01/09 03:38:55;;;;;;;;;;;;;;;;;;4999239;28;19944;-68
2023/01/09 03:41:21;;;;;;;;;;;;;;;;;;4998065;28;19928;-68
2023/01/09 03:43:47;;;;;;;;;;;;;;;;;;4995900;28;21689;-68
2023/01/09 03:46:12;;;;;;;;;;;;;;;;;;4978958;28;19925;-67
2023/01/09 03:48:37;;;;;;;;;;;;;;;;;;4982456;28;19925;-68
2023/01/09 03:51:05;;;;;;;;;;;;;;;;;;4994027;28;19982;-68
2023/01/09 03:53:30;;;;;;;;;;;;;;;;;;4981666;28;19918;-68
2023/01/09 03:59:12;;;;;;;;;;;;;;;;;;5000222;28;21515;-69
2023/01/09 04:01:39;;;;;;;;;;;;;;;;;;4995479;28;20214;-69
2023/01/09 04:04:05;;;;;;;;;;;;;;;;;;4998022;28;20000;-67
2023/01/09 04:06:32;;;;;;;;;;;;;;;;;;4997796;28;20511;-67
2023/01/09 04:09:05;;;;;;;;;;;;;;;;;;4982152;28;19921;-68
2023/01/09 04:11:33;;;;;;;;;;;;;;;;;;4995755;28;19960;-68
2023/01/09 04:13:58;;;;;;;;;;;;;;;;;;4976440;28;19956;-67
2023/01/09 04:16:24;;;;;;;;;;;;;;;;;;4997235;28;20078;-68
2023/01/09 04:18:54;;;;;;;;;;;;;;;;;;4997915;28;20380;-67
2023/01/09 04:21:22;;;;;;;;;;;;;;;;;;4996965;28;20016;-67
2023/01/09 04:23:50;;;;;;;;;;;;;;;;;;4997574;28;19924;-67
2023/01/09 04:26:15;;;;;;;;;;;;;;;;;;4996710;28;19925;-67
2023/01/09 04:28:41;;;;;;;;;;;;;;;;;;4998261;28;19968;-67
2023/01/09 04:31:09;;;;;;;;;;;;;;;;;;4996610;28;20712;-67
2023/01/09 04:33:37;;;;;;;;;;;;;;;;;;4996887;28;20521;-67
2023/01/09 04:36:21;;;;;;;;;;;;;;;;;;4996632;28;19922;-67
2023/01/09 04:38:49;;;;;;;;;;;;;;;;;;4997353;28;20411;-67
2023/01/09 04:41:47;;;;;;;;;;;;;;;;;;4997072;28;19921;-67
2023/01/09 04:44:00;;;;;;;;;;;;;;;;;;4998575;28;19918;-68
2023/01/09 04:46:27;;;;;;;;;;;;;;;;;;4996838;28;19924;-67
2023/01/09 04:48:54;;;;;;;;;;;;;;;;;;4997952;28;20593;-68
2023/01/09 04:51:19;;;;;;;;;;;;;;;;;;4980282;28;20223;-68
2023/01/09 04:53:44;;;;;;;;;;;;;;;;;;4995898;28;19928;-67
2023/01/09 04:56:13;;;;;;;;;;;;;;;;;;4994165;28;19921;-69
2023/01/09 04:58:39;;;;;;;;;;;;;;;;;;4996645;28;20134;-67
2023/01/09 05:01:04;;;;;;;;;;;;;;;;;;5000311;28;20822;-67
2023/01/09 05:03:31;;;;;;;;;;;;;;;;;;4986479;28;20296;-67
2023/01/09 05:05:57;;;;;;;;;;;;;;;;;;4999764;28;19925;-68
2023/01/09 05:08:25;;;;;;;;;;;;;;;;;;5002904;28;20389;-67
2023/01/09 05:10:51;;;;;;;;;;;;;;;;;;5001155;28;19921;-68
2023/01/09 05:13:16;;;;;;;;;;;;;;;;;;5001199;28;19917;-67
2023/01/09 05:15:46;;;;;;;;;;;;;;;;;;4999672;28;20403;-67
2023/01/09 05:18:14;;;;;;;;;;;;;;;;;;5003227;28;20271;-68
2023/01/09 05:20:39;;;;;;;;;;;;;;;;;;4999066;28;19925;-68
2023/01/09 05:26:23;;;;;;;;;;;;;;;;;;4999364;28;19982;-67
2023/01/09 05:28:51;;;;;;;;;;;;;;;;;;5000033;28;19929;-68
2023/01/09 05:31:19;;;;;;;;;;;;;;;;;;4982975;28;20053;-68
2023/01/09 05:33:47;;;;;;;;;;;;;;;;;;4986573;28;21428;-67
2023/01/09 05:36:12;;;;;;;;;;;;;;;;;;5001648;28;20082;-68
2023/01/09 05:38:39;;;;;;;;;;;;;;;;;;4999746;28;19956;-68
2023/01/09 05:41:08;;;;;;;;;;;;;;;;;;4998349;28;20019;-67
2023/01/09 05:43:36;;;;;;;;;;;;;;;;;;5002307;28;19921;-67
2023/01/09 05:46:01;;;;;;;;;;;;;;;;;;4996773;28;20261;-67
2023/01/09 05:48:31;;;;;;;;;;;;;;;;;;4984909;28;19957;-69
2023/01/09 05:50:57;;;;;;;;;;;;;;;;;;4999133;28;20396;-68
2023/01/09 05:53:23;;;;;;;;;;;;;;;;;;4999384;28;19914;-68
2023/01/09 05:55:48;;;;;;;;;;;;;;;;;;4999733;28;20467;-68
2023/01/09 05:58:14;;;;;;;;;;;;;;;;;;4998831;28;19967;-67
2023/01/09 06:00:42;;;;;;;;;;;;;;;;;;5014663;28;19971;-68
2023/01/09 06:03:07;;;;;;;;;;;;;;;;;;5001127;28;19925;-68
2023/01/09 06:05:35;;;;;;;;;;;;;;;;;;4999767;28;19981;-67
2023/01/09 06:08:03;;;;;;;;;;;;;;;;;;5000356;28;19917;-68
2023/01/09 06:10:29;;;;;;;;;;;;;;;;;;5000621;28;19921;-68
2023/01/09 06:12:56;;;;;;;;;;;;;;;;;;4996909;28;19963;-68
2023/01/09 06:15:24;;;;;;;;;;;;;;;;;;5002296;28;19948;-67
2023/01/09 06:17:51;;;;;;;;;;;;;;;;;;4999966;28;19917;-69
2023/01/09 06:20:19;;;;;;;;;;;;;;;;;;4998722;28;19928;-68
2023/01/09 06:22:45;;;;;;;;;;;;;;;;;;4998092;28;19921;-69
2023/01/09 06:25:18;;;;;;;;;;;;;;;;;;5000764;28;19928;-68
2023/01/09 06:27:45;;;;;;;;;;;;;;;;;;4997520;28;19955;-68
2023/01/09 06:30:11;;;;;;;;;;;;;;;;;;4983723;28;20454;-68
2023/01/09 06:32:36;;;;;;;;;;;;;;;;;;4997681;28;20027;-68
2023/01/09 06:35:04;;;;;;;;;;;;;;;;;;4986576;28;19971;-67
2023/01/09 06:37:32;;;;;;;;;;;;;;;;;;5001844;28;20012;-68
2023/01/09 06:39:57;;;;;;;;;;;;;;;;;;4997964;28;19952;-68
2023/01/09 06:42:23;;;;;;;;;;;;;;;;;;5000342;28;22502;-68
2023/01/09 06:44:51;;;;;;;;;;;;;;;;;;4999526;28;20012;-69
2023/01/09 06:47:22;;;;;;;;;;;;;;;;;;4999220;28;19921;-68
2023/01/09 06:49:50;;;;;;;;;;;;;;;;;;4983958;28;20011;-68
2023/01/09 06:55:32;;;;;;;;;;;;;;;;;;4999167;28;19976;-68
2023/01/09 06:57:59;;;;;;;;;;;;;;;;;;4999480;28;19975;-68
2023/01/09 07:00:26;;;;;;;;;;;;;;;;;;4999772;28;19964;-68
2023/01/09 07:02:51;;;;;;;;;;;;;;;;;;5000034;28;19991;-68
2023/01/09 07:05:19;;;;;;;;;;;;;;;;;;4999006;28;19929;-68
2023/01/09 07:07:45;;;;;;;;;;;;;;;;;;4985205;28;20399;-69
2023/01/09 07:10:10;;;;;;;;;;;;;;;;;;4998518;28;20004;-69
2023/01/09 07:12:37;;;;;;;;;;;;;;;;;;4981148;28;19936;-68
2023/01/09 07:15:05;;;;;;;;;;;;;;;;;;5000664;28;20024;-69
2023/01/09 07:17:31;;;;;;;;;;;;;;;;;;4983386;28;19921;-69
2023/01/09 07:19:59;;;;;;;;;;;;;;;;;;4998871;28;20728;-69
2023/01/09 07:22:27;;;;;;;;;;;;;;;;;;4997340;28;19920;-69
2023/01/09 07:24:52;;;;;;;;;;;;;;;;;;4995068;28;19921;-68
2023/01/09 07:27:18;;;;;;;;;;;;;;;;;;4992857;28;19932;-69
2023/01/09 07:29:43;;;;;;;;;;;;;;;;;;4997267;28;20688;-68
2023/01/09 07:32:11;;;;;;;;;;;;;;;;;;4998182;28;20277;-68
2023/01/09 07:34:38;;;;;;;;;;;;;;;;;;5000064;28;19945;-68
2023/01/09 07:37:06;;;;;;;;;;;;;;;;;;5002815;28;19928;-68
2023/01/09 07:39:34;;;;;;;;;;;;;;;;;;4999199;28;19917;-67
2023/01/09 07:42:00;;;;;;;;;;;;;;;;;;4998919;28;19925;-69
2023/01/09 07:44:27;;;;;;;;;;;;;;;;;;4999542;28;19921;-69
2023/01/09 07:46:55;;;;;;;;;;;;;;;;;;5003392;28;19944;-68
2023/01/09 07:49:20;;;;;;;;;;;;;;;;;;5000585;28;19921;-68
2023/01/09 07:51:47;;;;;;;;;;;;;;;;;;4997945;28;19959;-69
2023/01/09 07:54:12;;;;;;;;;;;;;;;;;;4997471;28;19940;-68
2023/01/09 07:56:40;;;;;;;;;;;;;;;;;;4995853;28;20476;-68
2023/01/09 07:59:06;;;;;;;;;;;;;;;;;;4999474;28;20032;-68
2023/01/09 08:01:31;;;;;;;;;;;;;;;;;;4995981;28;19921;-68
2023/01/09 08:03:59;;;;;;;;;;;;;;;;;;4997875;28;20250;-67
2023/01/09 08:06:27;;;;;;;;;;;;;;;;;;4996568;28;19948;-68
2023/01/09 08:08:55;;;;;;;;;;;;;;;;;;4981030;28;19939;-68
2023/01/09 08:11:22;;;;;;;;;;;;;;;;;;4996513;28;19979;-68
2023/01/09 08:13:48;;;;;;;;;;;;;;;;;;4995139;28;20044;-69
2023/01/09 08:16:16;;;;;;;;;;;;;;;;;;4982382;28;19923;-69
2023/01/09 08:18:41;;;;;;;;;;;;;;;;;;4996099;28;19920;-69
2023/01/09 08:21:06;;;;;;;;;;;;;;;;;;4996496;28;19917;-69
2023/01/09 08:23:32;;;;;;;;;;;;;;;;;;4998792;28;19974;-68
2023/01/09 08:25:57;;;;;;;;;;;;;;;;;;4994699;28;19921;-69
2023/01/09 08:28:22;;;;;;;;;;;;;;;;;;4996676;28;19924;-69
2023/01/09 08:30:48;;;;;;;;;;;;;;;;;;4997630;28;20011;-69
2023/01/09 08:33:13;;;;;;;;;;;;;;;;;;4997305;28;20365;-68
2023/01/09 08:35:41;;;;;;;;;;;;;;;;;;4997969;28;19921;-68
2023/01/09 08:38:07;;;;;;;;;;;;;;;;;;4997819;28;19956;-68
2023/01/09 08:40:32;;;;;;;;;;;;;;;;;;4999596;28;20067;-68
2023/01/09 08:49:01;;;;;;;;;;;;;;;;;;5001253;28;19917;-67
2023/01/09 08:51:29;;;;;;;;;;;;;;;;;;4995319;28;20283;-67
2023/01/09 08:53:54;;;;;;;;;;;;;;;;;;4997724;28;20449;-68
2023/01/09 08:56:20;;;;;;;;;;;;;;;;;;4996383;28;19922;-68
2023/01/09 08:58:46;;;;;;;;;;;;;;;;;;4997679;28;19983;-68
2023/01/09 09:01:11;;;;;;;;;;;;;;;;;;4981819;28;19921;-67
2023/01/09 09:03:40;;;;;;;;;;;;;;;;;;4994583;28;19975;-67
2023/01/09 09:06:05;;;;;;;;;;;;;;;;;;4999608;28;20363;-67
2023/01/09 09:08:31;;;;;;;;;;;;;;;;;;4997685;28;20040;-67
2023/01/09 09:11:00;;;;;;;;;;;;;;;;;;4995033;28;20371;-68
2023/01/09 09:13:25;;;;;;;;;;;;;;;;;;4997348;28;20080;-67
2023/01/09 09:15:50;;;;;;;;;;;;;;;;;;4997755;28;20277;-68
2023/01/09 09:18:15;;;;;;;;;;;;;;;;;;5000163;28;21634;-68
2023/01/09 09:20:41;;;;;;;;;;;;;;;;;;4997082;28;19913;-68
2023/01/09 09:23:07;;;;;;;;;;;;;;;;;;4994673;28;19917;-68
2023/01/09 09:25:32;;;;;;;;;;;;;;;;;;4997250;28;20502;-68
2023/01/09 09:28:00;;;;;;;;;;;;;;;;;;4979752;28;20013;-68
2023/01/09 09:30:28;;;;;;;;;;;;;;;;;;4997470;28;19921;-68
2023/01/09 09:32:53;;;;;;;;;;;;;;;;;;4980714;28;20015;-68
2023/01/09 09:35:21;;;;;;;;;;;;;;;;;;4984702;28;19963;-68
2023/01/09 09:37:55;;;;;;;;;;;;;;;;;;4997636;28;19928;-68
2023/01/09 09:40:21;;;;;;;;;;;;;;;;;;4997352;28;20258;-68
2023/01/09 09:45:35;;;;;;;;;;;;;;;;;;4998470;28;19928;-68
2023/01/09 09:48:01;;;;;;;;;;;;;;;;;;5001109;28;19924;-68
2023/01/09 09:50:26;;;;;;;;;;;;;;;;;;4999765;28;19921;-68
2023/01/09 09:52:52;;;;;;;;;;;;;;;;;;4982255;28;19921;-68
2023/01/09 09:55:18;;;;;;;;;;;;;;;;;;4998868;28;19921;-68
2023/01/09 09:57:43;;;;;;;;;;;;;;;;;;5001105;28;20122;-68
2023/01/09 10:00:08;;;;;;;;;;;;;;;;;;5000828;28;19921;-68
2023/01/09 10:02:33;;;;;;;;;;;;;;;;;;4986611;28;20014;-67
2023/01/09 10:04:59;;;;;;;;;;;;;;;;;;4999382;28;19921;-68
2023/01/09 10:07:24;;;;;;;;;;;;;;;;;;4999096;28;20312;-67
2023/01/09 10:09:56;;;;;;;;;;;;;;;;;;4998423;28;19955;-67
2023/01/09 10:12:21;;;;;;;;;;;;;;;;;;4985542;28;19921;-67
2023/01/09 10:14:46;;;;;;;;;;;;;;;;;;4999211;28;19972;-68
2023/01/09 10:17:14;;;;;;;;;;;;;;;;;;5000788;28;19990;-66
2023/01/09 10:19:39;;;;;;;;;;;;;;;;;;4985257;28;19925;-66
2023/01/09 10:22:07;;;;;;;;;;;;;;;;;;4998495;28;19928;-66
2023/01/09 10:24:34;;;;;;;;;;;;;;;;;;4999141;28;19928;-66
2023/01/09 10:26:59;;;;;;;;;;;;;;;;;;4996704;28;21726;-66
2023/01/09 10:29:27;;;;;;;;;;;;;;;;;;5000108;28;19924;-66
2023/01/09 10:31:55;;;;;;;;;;;;;;;;;;4998333;28;19928;-66
2023/01/09 10:34:21;;;;;;;;;;;;;;;;;;5000726;28;19921;-66
2023/01/09 10:36:49;;;;;;;;;;;;;;;;;;4998615;28;20044;-66
2023/01/09 10:39:17;;;;;;;;;;;;;;;;;;5000535;28;19917;-65
2023/01/09 10:41:42;;;;;;;;;;;;;;;;;;5000402;28;19928;-65
2023/01/09 10:44:10;;;;;;;;;;;;;;;;;;4999941;28;19944;-64
2023/01/09 10:46:35;;;;;;;;;;;;;;;;;;4998437;28;20361;-65
2023/01/09 10:49:06;;;;;;;;;;;;;;;;;;4997709;28;20475;-65
2023/01/09 10:51:38;;;;;;;;;;;;;;;;;;4983447;28;21841;-64
2023/01/09 10:54:11;;;;;;;;;;;;;;;;;;4998280;28;19928;-64
2023/01/09 10:56:36;;;;;;;;;;;;;;;;;;4998745;28;19921;-64
2023/01/09 10:59:04;;;;;;;;;;;;;;;;;;4996344;28;20403;-65
2023/01/09 11:01:29;;;;;;;;;;;;;;;;;;4981969;28;20252;-64
2023/01/09 11:03:58;;;;;;;;;;;;;;;;;;4999795;28;22013;-65
2023/01/09 11:06:25;;;;;;;;;;;;;;;;;;5001269;28;20540;-65
2023/01/09 11:08:53;;;;;;;;;;;;;;;;;;4982147;28;19931;-65
2023/01/09 11:11:22;;;;;;;;;;;;;;;;;;4997837;28;20292;-64
2023/01/09 11:13:47;;;;;;;;;;;;;;;;;;4999511;28;19952;-65
2023/01/09 11:16:13;;;;;;;;;;;;;;;;;;4995445;28;19936;-65
2023/01/09 11:18:41;;;;;;;;;;;;;;;;;;4997218;28;20392;-64
2023/01/09 11:21:06;;;;;;;;;;;;;;;;;;4995642;28;20187;-63
2023/01/09 11:23:34;;;;;;;;;;;;;;;;;;4997180;28;19924;-65
2023/01/09 11:26:01;;;;;;;;;;;;;;;;;;4997283;28;20076;-63
2023/01/09 11:28:27;;;;;;;;;;;;;;;;;;4999038;28;20387;-64
2023/01/09 11:30:55;;;;;;;;;;;;;;;;;;4998768;28;20023;-64
2023/01/09 11:33:20;;;;;;;;;;;;;;;;;;4998735;28;20763;-65
2023/01/09 11:35:45;;;;;;;;;;;;;;;;;;4998158;28;19917;-65
2023/01/09 11:38:11;;;;;;;;;;;;;;;;;;5000267;28;19953;-64
2023/01/09 11:40:36;;;;;;;;;;;;;;;;;;4996564;28;20479;-64
2023/01/09 11:43:04;;;;;;;;;;;;;;;;;;4983255;28;19924;-64
2023/01/09 11:45:30;;;;;;;;;;;;;;;;;;4999619;28;20489;-64
2023/01/09 11:47:58;;;;;;;;;;;;;;;;;;4999444;28;19969;-64
2023/01/09 11:50:24;;;;;;;;;;;;;;;;;;4998700;28;19935;-65
2023/01/09 11:52:50;;;;;;;;;;;;;;;;;;5000123;28;20167;-64
2023/01/09 11:55:18;;;;;;;;;;;;;;;;;;4997171;28;19983;-64
2023/01/09 11:57:49;;;;;;;;;;;;;;;;;;4998513;28;19967;-64
2023/01/09 12:00:14;;;;;;;;;;;;;;;;;;4996869;28;20047;-65
2023/01/09 12:02:42;;;;;;;;;;;;;;;;;;4998756;28;19984;-65
2023/01/09 12:05:07;;;;;;;;;;;;;;;;;;4995594;28;19966;-64
2023/01/09 12:07:38;;;;;;;;;;;;;;;;;;4997713;28;19932;-64
2023/01/09 12:10:03;;;;;;;;;;;;;;;;;;4997497;28;19923;-64
2023/01/09 12:12:28;;;;;;;;;;;;;;;;;;4976733;28;21154;-64
2023/01/09 12:14:56;;;;;;;;;;;;;;;;;;4997934;28;19917;-65
2023/01/09 12:17:24;;;;;;;;;;;;;;;;;;4998243;28;20651;-67
2023/01/09 12:19:50;;;;;;;;;;;;;;;;;;4997323;28;19925;-65
2023/01/09 12:22:15;;;;;;;;;;;;;;;;;;4996727;28;19921;-65
2023/01/09 12:24:41;;;;;;;;;;;;;;;;;;4998086;28;20095;-65
2023/01/09 12:27:08;;;;;;;;;;;;;;;;;;4997262;28;19921;-65
2023/01/09 12:29:34;;;;;;;;;;;;;;;;;;4998782;28;20437;-65
2023/01/09 12:32:01;;;;;;;;;;;;;;;;;;4995233;28;19982;-64
2023/01/09 12:34:27;;;;;;;;;;;;;;;;;;4994166;28;20486;-65
2023/01/09 12:36:52;;;;;;;;;;;;;;;;;;4983119;28;20347;-64
2023/01/09 12:39:18;;;;;;;;;;;;;;;;;;4997580;28;20016;-65
2023/01/09 12:41:44;;;;;;;;;;;;;;;;;;4996495;28;19959;-64
2023/01/09 12:44:09;;;;;;;;;;;;;;;;;;4996713;28;19928;-65
2023/01/09 12:46:35;;;;;;;;;;;;;;;;;;4997809;28;20316;-66
2023/01/09 12:49:03;;;;;;;;;;;;;;;;;;4999817;28;20025;-65
2023/01/09 12:51:30;;;;;;;;;;;;;;;;;;4996933;28;19921;-64
2023/01/09 12:53:58;;;;;;;;;;;;;;;;;;4998224;28;20017;-64
2023/01/09 12:56:23;;;;;;;;;;;;;;;;;;4994256;28;20259;-65
2023/01/09 12:58:51;;;;;;;;;;;;;;;;;;4997677;28;19928;-66
2023/01/09 13:01:17;;;;;;;;;;;;;;;;;;4997219;28;19921;-64
2023/01/09 13:03:48;;;;;;;;;;;;;;;;;;4997923;28;19924;-64
2023/01/09 13:06:16;;;;;;;;;;;;;;;;;;4998747;28;19948;-65
2023/01/09 13:08:41;;;;;;;;;;;;;;;;;;4996216;28;20831;-65
2023/01/09 13:11:09;;;;;;;;;;;;;;;;;;4996944;28;19921;-65
2023/01/09 13:13:34;;;;;;;;;;;;;;;;;;4999337;28;20369;-66
2023/01/09 13:16:02;;;;;;;;;;;;;;;;;;4996440;28;20343;-64
2023/01/09 13:18:30;;;;;;;;;;;;;;;;;;4997271;28;20052;-65
2023/01/09 13:20:56;;;;;;;;;;;;;;;;;;4996352;28;19918;-65
2023/01/09 13:23:21;;;;;;;;;;;;;;;;;;4985764;28;20065;-65
2023/01/09 13:25:49;;;;;;;;;;;;;;;;;;4985346;28;20301;-66
2023/01/09 13:28:14;;;;;;;;;;;;;;;;;;5001010;28;20007;-65
2023/01/09 13:30:40;;;;;;;;;;;;;;;;;;4999770;28;19925;-65
2023/01/09 13:33:05;;;;;;;;;;;;;;;;;;4998343;28;19955;-65
2023/01/09 13:35:31;;;;;;;;;;;;;;;;;;5001375;28;19921;-65
2023/01/09 13:37:56;;;;;;;;;;;;;;;;;;4997270;28;20191;-65
2023/01/09 13:40:22;;;;;;;;;;;;;;;;;;5002840;28;19968;-65
2023/01/09 13:42:47;;;;;;;;;;;;;;;;;;5001202;28;20067;-65
2023/01/09 13:45:15;;;;;;;;;;;;;;;;;;4984711;28;19924;-66
2023/01/09 13:47:42;;;;;;;;;;;;;;;;;;4982922;28;21542;-66
2023/01/09 13:50:11;;;;;;;;;;;;;;;;;;4998494;28;20336;-66
2023/01/09 13:52:36;;;;;;;;;;;;;;;;;;5000455;28;20399;-66
2023/01/09 13:55:04;;;;;;;;;;;;;;;;;;4998072;28;20516;-64
2023/01/09 13:57:30;;;;;;;;;;;;;;;;;;4999578;28;19921;-65
2023/01/09 13:59:56;;;;;;;;;;;;;;;;;;5001614;28;19921;-65
2023/01/09 14:02:21;;;;;;;;;;;;;;;;;;4999329;28;19925;-65
2023/01/09 14:04:46;;;;;;;;;;;;;;;;;;5015256;28;19921;-65
2023/01/09 14:07:15;;;;;;;;;;;;;;;;;;4998972;28;20396;-65
2023/01/09 14:09:43;;;;;;;;;;;;;;;;;;4998682;28;19975;-65
2023/01/09 14:12:11;;;;;;;;;;;;;;;;;;4998285;28;20156;-66
2023/01/09 14:14:42;;;;;;;;;;;;;;;;;;5001271;28;19918;-65
2023/01/09 14:17:10;;;;;;;;;;;;;;;;;;4997536;28;19953;-65
2023/01/09 14:19:40;;;;;;;;;;;;;;;;;;5000731;28;20012;-66
2023/01/09 14:22:05;;;;;;;;;;;;;;;;;;5001380;28;19959;-66
2023/01/09 14:24:31;;;;;;;;;;;;;;;;;;4998615;28;19917;-65
2023/01/09 14:26:57;;;;;;;;;;;;;;;;;;4999757;28;19932;-65
2023/01/09 14:29:22;;;;;;;;;;;;;;;;;;5001140;28;19936;-66
2023/01/09 14:31:50;;;;;;;;;;;;;;;;;;4984238;28;20003;-66
2023/01/09 14:34:15;;;;;;;;;;;;;;;;;;4984709;28;19921;-66
2023/01/09 14:36:41;;;;;;;;;;;;;;;;;;4997551;28;19921;-65
2023/01/09 14:39:09;;;;;;;;;;;;;;;;;;5000642;28;19999;-66
2023/01/09 14:44:18;;;;;;;;;;;;;;;;;;5000264;28;19925;-64
2023/01/09 14:46:44;;;;;;;;;;;;;;;;;;4997819;28;20003;-65
2023/01/09 14:49:12;;;;;;;;;;;;;;;;;;5014454;28;19921;-66
2023/01/09 14:51:38;;;;;;;;;;;;;;;;;;4993540;28;19928;-65
2023/01/09 14:54:06;;;;;;;;;;;;;;;;;;4998789;28;19921;-65
2023/01/09 14:56:35;;;;;;;;;;;;;;;;;;4999629;28;20002;-65
2023/01/09 14:59:00;;;;;;;;;;;;;;;;;;5001182;28;21981;-66
2023/01/09 15:01:26;;;;;;;;;;;;;;;;;;4996696;28;20368;-66
2023/01/09 15:03:57;;;;;;;;;;;;;;;;;;4997262;28;20542;-67
2023/01/09 15:06:25;;;;;;;;;;;;;;;;;;5001308;28;20093;-65
2023/01/09 15:08:53;;;;;;;;;;;;;;;;;;4997604;28;19950;-66
2023/01/09 15:11:18;;;;;;;;;;;;;;;;;;4986274;28;19917;-66
2023/01/09 15:13:45;;;;;;;;;;;;;;;;;;4998679;28;19932;-65
2023/01/09 15:16:11;;;;;;;;;;;;;;;;;;4999038;28;19921;-65
2023/01/09 15:18:36;;;;;;;;;;;;;;;;;;4999960;28;20020;-65
2023/01/09 15:21:04;;;;;;;;;;;;;;;;;;4982848;28;20016;-66
2023/01/09 15:23:29;;;;;;;;;;;;;;;;;;4998510;28;20381;-66
2023/01/09 15:25:55;;;;;;;;;;;;;;;;;;4998389;28;19927;-65
2023/01/09 15:28:20;;;;;;;;;;;;;;;;;;4982278;28;20361;-67
2023/01/09 15:30:46;;;;;;;;;;;;;;;;;;4997436;28;19927;-66
2023/01/09 15:33:12;;;;;;;;;;;;;;;;;;4999587;28;20352;-66
2023/01/09 15:35:37;;;;;;;;;;;;;;;;;;4999104;28;19921;-66
2023/01/09 15:38:05;;;;;;;;;;;;;;;;;;4998919;28;19917;-66
2023/01/09 15:40:31;;;;;;;;;;;;;;;;;;4998206;28;19921;-66
2023/01/09 15:42:58;;;;;;;;;;;;;;;;;;4983253;28;20619;-66
2023/01/09 15:45:24;;;;;;;;;;;;;;;;;;4998107;28;19924;-67
2023/01/09 15:47:49;;;;;;;;;;;;;;;;;;4999067;28;19925;-66
2023/01/09 15:50:15;;;;;;;;;;;;;;;;;;4983771;28;20145;-67
2023/01/09 15:52:40;;;;;;;;;;;;;;;;;;4996805;28;19928;-66
2023/01/09 15:55:05;;;;;;;;;;;;;;;;;;4983705;28;20425;-66
2023/01/09 15:57:34;;;;;;;;;;;;;;;;;;4995598;28;20575;-66
2023/01/09 16:00:02;;;;;;;;;;;;;;;;;;4996686;28;20019;-65
2023/01/09 16:05:12;;;;;;;;;;;;;;;;;;4997442;28;20226;-65
2023/01/09 16:07:38;;;;;;;;;;;;;;;;;;4999466;28;19952;-66
2023/01/09 16:10:06;;;;;;;;;;;;;;;;;;4999586;28;20372;-66
2023/01/09 16:12:31;;;;;;;;;;;;;;;;;;4996083;28;19971;-66
2023/01/09 16:14:57;;;;;;;;;;;;;;;;;;4997780;28;20265;-69
2023/01/09 16:17:25;;;;;;;;;;;;;;;;;;4988500;28;19917;-67
2023/01/09 16:19:53;;;;;;;;;;;;;;;;;;5013725;28;21635;-69
2023/01/09 16:22:18;;;;;;;;;;;;;;;;;;4995965;28;20460;-68
2023/01/09 16:24:47;;;;;;;;;;;;;;;;;;4995170;28;20495;-69
2023/01/09 16:27:12;;;;;;;;;;;;;;;;;;4992082;28;20011;-68
2023/01/09 16:29:38;;;;;;;;;;;;;;;;;;4996396;28;19944;-68
2023/01/09 16:32:04;;;;;;;;;;;;;;;;;;4997055;28;19921;-68
2023/01/09 16:34:30;;;;;;;;;;;;;;;;;;4995030;28;20431;-68
2023/01/09 16:36:58;;;;;;;;;;;;;;;;;;4988901;28;19927;-68
2023/01/09 16:39:25;;;;;;;;;;;;;;;;;;4994811;28;19944;-68
2023/01/09 16:47:57;;;;;;;;;;;;;;;;;;4994171;28;20594;-69
2023/01/09 16:50:24;;;;;;;;;;;;;;;;;;4998051;28;20552;-68
2023/01/09 16:52:50;;;;;;;;;;;;;;;;;;4996787;28;19921;-68
2023/01/09 16:55:18;;;;;;;;;;;;;;;;;;4996077;28;20120;-68
2023/01/09 16:57:44;;;;;;;;;;;;;;;;;;4996270;28;19922;-68
2023/01/09 17:00:12;;;;;;;;;;;;;;;;;;5002511;28;20360;-69
2023/01/09 17:02:37;;;;;;;;;;;;;;;;;;4985333;28;19921;-68
2023/01/09 17:05:02;;;;;;;;;;;;;;;;;;5002118;28;20365;-68
2023/01/09 17:07:29;;;;;;;;;;;;;;;;;;4986486;28;20874;-68
2023/01/09 17:09:57;;;;;;;;;;;;;;;;;;4985624;28;19921;-68
2023/01/09 17:12:23;;;;;;;;;;;;;;;;;;4980482;28;20042;-68
2023/01/09 17:14:54;;;;;;;;;;;;;;;;;;5000343;28;19971;-68
2023/01/09 17:17:20;;;;;;;;;;;;;;;;;;4985093;28;19921;-69